Time;durP1;ratioP1;P1;durP2;ratioP2;P2;SDS_P1;SDS_P2;PMS_P1;PMS_P2;Temp;Humidity;BMP_temperature;BMP_pressure;BME280_temperature;BME280_humidity;BME280_pressure;Samples;Min_cycle;Max_cycle;Signal;HPM_P1;HPM_P2
2023/09/07 00:01:06;;;;;;;4.45;2.90;;;;;;;20.53;62.92;100973.39;1657387;86;21045;-66
2023/09/07 00:03:40;;;;;;;3.83;2.95;;;;;;;20.51;62.81;100980.59;1657321;86;21048;-67
2023/09/07 00:06:10;;;;;;;5.50;3.05;;;;;;;20.48;62.85;100981.09;1657391;86;21002;-67
2023/09/07 00:08:40;;;;;;;4.95;2.90;;;;;;;20.47;62.85;100984.13;1657198;86;21093;-65
2023/09/07 00:11:09;;;;;;;4.17;2.80;;;;;;;20.43;62.88;100991.29;1657380;86;21046;-66
2023/09/07 00:13:39;;;;;;;5.17;3.08;;;;;;;20.37;62.92;100995.88;1657333;86;21046;-67
2023/09/07 00:16:08;;;;;;;3.27;2.80;;;;;;;20.35;62.88;101011.14;1657370;86;21467;-67
2023/09/07 00:18:38;;;;;;;5.17;3.00;;;;;;;20.30;62.63;101002.14;1657362;86;21089;-67
2023/09/07 00:21:07;;;;;;;4.35;3.10;;;;;;;20.28;62.71;101009.89;1657382;86;21912;-66
2023/09/07 00:23:35;;;;;;;3.80;2.95;;;;;;;20.26;62.73;101006.51;1657299;86;21059;-67
2023/09/07 00:26:05;;;;;;;4.17;2.98;;;;;;;20.24;62.82;101014.27;1657204;86;21014;-66
2023/09/07 00:28:33;;;;;;;3.67;2.80;;;;;;;20.20;63.01;101018.62;1657219;86;21090;-65
2023/09/07 00:31:03;;;;;;;5.35;2.80;;;;;;;20.18;63.23;101023.05;1657164;86;21462;-67
2023/09/07 00:33:33;;;;;;;4.33;2.87;;;;;;;20.13;63.50;101020.13;1657245;86;21054;-67
2023/09/07 00:36:03;;;;;;;4.08;2.72;;;;;;;20.13;63.73;101024.30;1657233;86;21085;-66
2023/09/07 00:38:32;;;;;;;4.33;3.25;;;;;;;20.11;63.83;101032.59;1666342;86;21054;-67
2023/09/07 00:41:01;;;;;;;9.00;3.45;;;;;;;20.10;63.91;101040.64;1657164;86;21113;-66
2023/09/07 00:43:30;;;;;;;5.80;3.00;;;;;;;20.08;63.98;101034.48;1657309;86;21069;-68
2023/09/07 00:45:58;;;;;;;5.05;3.17;;;;;;;20.05;64.05;101037.20;1657397;86;21045;-66
2023/09/07 00:48:27;;;;;;;3.90;3.10;;;;;;;20.03;64.07;101037.14;1657125;86;21101;-66
2023/09/07 00:50:55;;;;;;;4.87;3.05;;;;;;;19.99;64.09;101040.11;1657127;86;21058;-66
2023/09/07 00:53:24;;;;;;;7.03;3.40;;;;;;;19.97;64.10;101037.58;1657311;86;21085;-68
2023/09/07 00:55:55;;;;;;;5.53;2.90;;;;;;;19.93;64.08;101035.83;1643952;86;21090;-65
2023/09/07 00:58:24;;;;;;;6.78;3.15;;;;;;;19.90;64.13;101032.14;1657127;86;21094;-67
2023/09/07 01:00:55;;;;;;;4.12;3.20;;;;;;;19.87;64.23;101028.47;1657208;86;21073;-65
2023/09/07 01:03:24;;;;;;;5.08;2.95;;;;;;;19.80;64.19;101034.70;1657119;86;21096;-67
2023/09/07 01:06:04;;;;;;;3.40;3.00;;;;;;;19.75;64.32;101038.75;1657168;86;21081;-67
2023/09/07 01:08:38;;;;;;;5.40;3.05;;;;;;;19.71;64.44;101033.37;1666158;86;21117;-67
2023/09/07 01:11:15;;;;;;;4.72;3.37;;;;;;;19.72;64.37;101032.83;1657166;86;21062;-66
2023/09/07 01:13:45;;;;;;;;;;;;;;;19.67;64.30;101021.59;1659560;86;21094;-66
2023/09/07 01:16:15;;;;;;;6.35;3.17;;;;;;;19.65;64.29;101036.28;1657156;86;20219;-67
2023/09/07 01:18:44;;;;;;;5.33;3.22;;;;;;;19.56;64.31;101036.64;1657352;86;21149;-67
2023/09/07 01:21:14;;;;;;;5.37;3.17;;;;;;;19.52;64.35;101039.60;1657382;86;21027;-65
2023/09/07 01:23:44;;;;;;;4.33;3.35;;;;;;;19.53;64.39;101048.79;1657320;86;21118;-66
2023/09/07 01:26:12;;;;;;;4.35;3.02;;;;;;;19.52;64.41;101041.51;1657129;86;21062;-66
2023/09/07 01:28:41;;;;;;;5.03;3.10;;;;;;;19.53;64.35;101048.25;1657309;86;21046;-66
2023/09/07 01:31:10;;;;;;;6.40;3.40;;;;;;;19.52;64.34;101040.99;1657404;86;21097;-67
2023/09/07 01:33:39;;;;;;;5.33;3.50;;;;;;;19.47;64.39;101043.59;1657327;86;21028;-67
2023/09/07 01:36:08;;;;;;;4.75;3.10;;;;;;;19.47;64.45;101044.13;1657369;86;21142;-67
2023/09/07 01:38:38;;;;;;;5.45;3.15;;;;;;;19.46;64.45;101042.44;1657150;86;21124;-67
2023/09/07 01:41:06;;;;;;;6.17;3.27;;;;;;;19.44;64.42;101048.78;1660130;84;21095;-67
2023/09/07 01:43:36;;;;;;;4.78;3.17;;;;;;;19.41;64.51;101053.43;1665615;85;21149;-66
2023/09/07 01:46:05;;;;;;;4.67;3.40;;;;;;;19.39;64.52;101056.45;1665503;85;21058;-66
2023/09/07 01:48:34;;;;;;;6.37;3.40;;;;;;;19.37;64.48;101059.16;1665549;85;21500;-66
2023/09/07 01:51:04;;;;;;;4.90;3.45;;;;;;;19.33;64.50;101056.87;1696355;84;21098;-67
2023/09/07 01:53:34;;;;;;;5.42;3.42;;;;;;;19.31;64.51;101054.88;1665778;85;21110;-67
2023/09/07 01:56:04;;;;;;;5.28;3.30;;;;;;;19.28;64.61;101058.13;1665464;86;21212;-66
2023/09/07 01:58:34;;;;;;;6.17;3.37;;;;;;;19.25;64.76;101047.48;1665506;85;21070;-67
2023/09/07 02:01:03;;;;;;;4.62;3.17;;;;;;;19.21;64.93;101058.78;1665624;86;21478;-67
2023/09/07 02:03:33;;;;;;;6.30;3.45;;;;;;;19.15;65.15;101061.66;1665691;86;21030;-67
2023/09/07 02:06:02;;;;;;;6.95;3.42;;;;;;;19.11;65.43;101065.46;1665536;85;21133;-68
2023/09/07 02:08:32;;;;;;;4.37;3.47;;;;;;;19.11;65.66;101064.61;1665486;86;21086;-67
2023/09/07 02:11:01;;;;;;;29.23;26.12;;;;;;;19.08;65.78;101067.33;1696279;84;21146;-67
2023/09/07 02:13:30;;;;;;;7.25;5.25;;;;;;;19.04;65.99;101069.42;1620034;88;21446;-66
2023/09/07 02:16:05;;;;;;;5.10;3.30;;;;;;;19.03;66.12;101067.73;1665535;86;21074;-65
2023/09/07 02:18:36;;;;;;;6.83;3.67;;;;;;;19.02;66.21;101068.27;1651257;86;21078;-67
2023/09/07 02:21:05;;;;;;;4.87;3.30;;;;;;;18.98;66.23;101069.84;1665486;86;21114;-66
2023/09/07 02:23:35;;;;;;;5.90;3.33;;;;;;;18.94;66.41;101070.00;1665703;85;21552;-66
2023/09/07 02:26:04;;;;;;;7.53;3.33;;;;;;;18.89;66.55;101072.64;1665568;86;21074;-66
2023/09/07 02:28:33;;;;;;;3.95;3.50;;;;;;;18.85;66.63;101076.94;1665521;86;21533;-66
2023/09/07 02:31:08;;;;;;;8.28;3.30;;;;;;;18.82;66.73;101082.42;1665608;85;21019;-67
2023/09/07 02:33:38;;;;;;;4.15;2.80;;;;;;;18.80;66.90;101081.81;1665616;86;21102;-66
2023/09/07 02:36:08;;;;;;;8.75;3.52;;;;;;;18.75;67.03;101080.28;1665695;85;21034;-67
2023/09/07 02:38:37;;;;;;;5.47;3.25;;;;;;;18.73;67.10;101078.83;1665728;86;20994;-67
2023/09/07 02:41:06;;;;;;;4.30;3.50;;;;;;;18.69;67.15;101080.69;1663711;85;21073;-65
2023/09/07 02:43:36;;;;;;;7.80;3.30;;;;;;;18.66;67.32;101085.31;1657289;86;21074;-67
2023/09/07 02:46:04;;;;;;;5.20;3.25;;;;;;;18.61;67.57;101089.34;1657151;86;22127;-66
2023/09/07 02:48:33;;;;;;;4.95;3.37;;;;;;;18.59;67.70;101084.52;1657049;86;21007;-66
2023/09/07 02:51:04;;;;;;;6.30;3.65;;;;;;;18.56;67.88;101093.32;1657172;86;21078;-67
2023/09/07 02:53:34;;;;;;;4.55;3.30;;;;;;;18.53;68.07;101091.55;1657049;86;21285;-67
2023/09/07 02:56:04;;;;;;;4.92;3.77;;;;;;;18.51;68.13;101096.49;1657287;86;21102;-67
2023/09/07 02:58:33;;;;;;;5.42;3.47;;;;;;;18.50;68.28;101094.80;1657179;86;21042;-67
2023/09/07 03:01:13;;;;;;;4.97;3.65;;;;;;;18.45;68.39;101098.27;1657234;86;21078;-67
2023/09/07 03:03:42;;;;;;;4.55;3.33;;;;;;;18.45;68.56;101100.20;1657173;86;21580;-67
2023/09/07 03:06:13;;;;;;;4.85;3.58;;;;;;;18.44;68.62;101097.11;1657237;86;21121;-67
2023/09/07 03:08:44;;;;;;;11.73;4.40;;;;;;;18.45;68.61;101101.59;1657327;86;21050;-67
2023/09/07 03:11:14;;;;;;;4.70;3.30;;;;;;;18.43;68.54;101105.13;1657424;86;21058;-66
2023/09/07 03:13:44;;;;;;;11.05;4.42;;;;;;;18.36;68.61;101105.22;1657320;86;21105;-66
2023/09/07 03:16:16;;;;;;;5.45;3.40;;;;;;;18.32;68.74;101108.99;1657270;86;21110;-67
2023/09/07 03:18:46;;;;;;;6.37;3.65;;;;;;;18.31;68.77;101114.77;1657351;86;21118;-67
2023/09/07 03:21:16;;;;;;;6.45;3.55;;;;;;;18.30;68.82;101121.41;1657199;86;21022;-66
2023/09/07 03:23:46;;;;;;;7.42;3.80;;;;;;;18.28;68.93;101120.24;1657125;86;21548;-67
2023/09/07 03:26:21;;;;;;;6.45;3.80;;;;;;;18.23;69.02;101127.02;1657279;86;21074;-66
2023/09/07 03:28:59;;;;;;;7.83;3.80;;;;;;;18.18;69.24;101130.15;1657415;86;21018;-67
2023/09/07 03:31:27;;;;;;;5.90;3.58;;;;;;;18.16;69.38;101133.69;1657120;86;21047;-68
2023/09/07 03:33:56;;;;;;;7.12;3.47;;;;;;;18.13;69.52;101134.16;1657154;86;21498;-67
2023/09/07 03:36:25;;;;;;;6.33;3.80;;;;;;;18.13;69.59;101139.70;1657361;86;21058;-67
2023/09/07 03:38:54;;;;;;;5.47;3.77;;;;;;;18.09;69.61;101140.70;1657388;86;21069;-66
2023/09/07 03:41:30;;;;;;;5.55;3.27;;;;;;;18.08;69.75;101147.86;1658916;84;21122;-68
2023/09/07 03:43:57;;;;;;;9.75;3.90;;;;;;;18.06;69.92;101150.32;1666083;84;21078;-67
2023/09/07 03:46:27;;;;;;;5.42;3.70;;;;;;;18.02;69.97;101156.02;1665730;86;21023;-66
2023/09/07 03:48:57;;;;;;;6.83;3.35;;;;;;;17.99;70.07;101154.24;1665742;86;21062;-67
2023/09/07 03:51:26;;;;;;;5.78;3.77;;;;;;;17.96;70.22;101159.70;1665742;86;21027;-65
2023/09/07 03:53:56;;;;;;;6.60;3.50;;;;;;;17.92;70.33;101154.84;1665573;86;21023;-66
2023/09/07 03:56:26;;;;;;;7.87;3.95;;;;;;;17.88;70.35;101158.61;1665540;86;21487;-68
2023/09/07 03:58:55;;;;;;;5.78;3.75;;;;;;;17.82;70.42;101163.67;1665547;85;21540;-66
2023/09/07 04:01:25;;;;;;;6.85;3.80;;;;;;;17.80;70.53;101168.59;1665764;86;21050;-68
2023/09/07 04:03:55;;;;;;;6.17;3.87;;;;;;;17.80;70.58;101167.75;1650516;86;21062;-67
2023/09/07 04:06:25;;;;;;;6.30;3.62;;;;;;;17.79;70.66;101166.90;1665710;85;21099;-66
2023/09/07 04:08:53;;;;;;;16.20;4.58;;;;;;;17.79;70.56;101173.83;1665609;86;21043;-66
2023/09/07 04:11:22;;;;;;;11.78;4.00;;;;;;;17.78;70.52;101177.68;1665477;85;21543;-66
2023/09/07 04:13:52;;;;;;;6.72;3.72;;;;;;;17.76;70.61;101181.22;1665583;86;21451;-66
2023/09/07 04:16:20;;;;;;;5.85;3.62;;;;;;;17.76;70.64;101184.52;1665540;86;21034;-67
2023/09/07 04:18:49;;;;;;;10.38;3.40;;;;;;;17.74;70.54;101186.98;1665635;86;21094;-67
2023/09/07 04:21:18;;;;;;;7.90;4.08;;;;;;;17.73;70.59;101187.21;1665810;86;21031;-65
2023/09/07 04:23:47;;;;;;;7.95;4.42;;;;;;;17.74;70.72;101188.91;1665690;85;21098;-67
2023/09/07 04:26:18;;;;;;;6.30;4.00;;;;;;;17.76;70.66;101196.46;1665550;85;21113;-67
2023/09/07 04:28:49;;;;;;;5.20;3.33;;;;;;;17.74;70.60;101188.38;1665625;86;21485;-66
2023/09/07 04:31:20;;;;;;;8.60;3.80;;;;;;;17.74;70.46;101191.68;1665593;86;21082;-67
2023/09/07 04:33:52;;;;;;;9.55;4.40;;;;;;;17.74;70.35;101186.14;1665638;85;21030;-68
2023/09/07 04:36:21;;;;;;;4.92;3.80;;;;;;;17.74;70.30;101182.83;1665537;85;21557;-67
2023/09/07 04:38:50;;;;;;;5.28;3.17;;;;;;;17.75;70.13;101186.45;1665793;86;21023;-67
2023/09/07 04:41:20;;;;;;;7.37;3.22;;;;;;;17.74;69.90;101195.84;1665552;86;21058;-67
2023/09/07 04:43:49;;;;;;;6.22;4.03;;;;;;;17.72;69.76;101195.22;1668478;85;21994;-66
2023/09/07 04:46:22;;;;;;;7.33;3.80;;;;;;;17.69;69.81;101197.05;1668442;85;21552;-67
2023/09/07 04:48:51;;;;;;;6.72;3.58;;;;;;;17.70;69.85;101206.53;1668406;84;21218;-68
2023/09/07 04:51:22;;;;;;;5.33;3.52;;;;;;;17.73;69.80;101201.07;1668569;86;21070;-67
2023/09/07 04:53:51;;;;;;;8.95;3.40;;;;;;;17.68;69.73;101201.75;1668605;86;21054;-68
2023/09/07 04:56:22;;;;;;;6.55;3.60;;;;;;;17.66;69.71;101209.94;1668784;85;21050;-67
2023/09/07 04:58:52;;;;;;;10.55;4.10;;;;;;;17.68;69.52;101210.06;1668529;85;21073;-67
2023/09/07 05:01:21;;;;;;;8.55;4.60;;;;;;;17.67;69.40;101207.52;1668476;84;21035;-67
2023/09/07 05:03:51;;;;;;;8.10;3.77;;;;;;;17.66;69.46;101208.05;1668604;85;21030;-66
2023/09/07 05:06:22;;;;;;;6.75;4.20;;;;;;;17.65;69.49;101203.55;1668415;86;21034;-66
2023/09/07 05:08:53;;;;;;;4.58;3.15;;;;;;;17.65;69.42;101202.16;1690407;84;21061;-66
2023/09/07 05:11:23;;;;;;;7.97;4.00;;;;;;;17.67;69.37;101204.74;1668545;86;21047;-67
2023/09/07 05:13:52;;;;;;;8.80;4.08;;;;;;;17.70;69.27;101202.91;1668476;86;21078;-67
2023/09/07 05:16:21;;;;;;;7.00;4.03;;;;;;;17.71;69.12;101206.84;1668366;85;21034;-68
2023/09/07 05:18:52;;;;;;;9.70;4.47;;;;;;;17.72;69.03;101207.16;1668673;86;21047;-67
2023/09/07 05:21:22;;;;;;;9.20;4.25;;;;;;;17.71;68.96;101204.07;1668392;86;21083;-66
2023/09/07 05:23:52;;;;;;;6.45;3.85;;;;;;;17.70;68.91;101211.22;1691083;84;21123;-66
2023/09/07 05:26:25;;;;;;;9.15;3.47;;;;;;;17.73;68.96;101206.62;1668566;85;21062;-66
2023/09/07 05:28:55;;;;;;;4.67;3.60;;;;;;;17.74;69.01;101204.16;1668476;85;21090;-68
2023/09/07 05:31:24;;;;;;;7.05;3.58;;;;;;;17.80;68.65;101206.56;1668513;84;21094;-68
2023/09/07 05:33:53;;;;;;;6.85;3.98;;;;;;;17.85;68.25;101206.73;1668583;84;21074;-66
2023/09/07 05:36:22;;;;;;;6.83;3.77;;;;;;;17.90;67.92;101208.29;1668592;86;21059;-68
2023/09/07 05:38:51;;;;;;;6.78;3.60;;;;;;;17.95;67.67;101207.92;1668519;84;21046;-67
2023/09/07 05:41:20;;;;;;;7.45;3.83;;;;;;;17.98;67.54;101211.62;1690852;83;21054;-67
2023/09/07 05:43:50;;;;;;;8.25;3.65;;;;;;;17.99;67.50;101212.47;1668321;86;21042;-66
2023/09/07 05:46:19;;;;;;;8.23;3.83;;;;;;;18.03;67.38;101215.11;1668686;86;21027;-67
2023/09/07 05:48:49;;;;;;;6.05;3.62;;;;;;;18.06;67.21;101216.88;1668356;84;21106;-68
2023/09/07 05:51:18;;;;;;;8.38;3.90;;;;;;;18.10;66.99;101224.22;1668336;86;21006;-66
2023/09/07 05:53:48;;;;;;;4.87;3.80;;;;;;;18.12;66.87;101229.00;1668420;86;21466;-67
2023/09/07 05:56:17;;;;;;;7.83;3.77;;;;;;;18.13;66.78;101232.62;1668402;86;21474;-68
2023/09/07 05:58:47;;;;;;;5.67;3.62;;;;;;;18.12;66.76;101224.84;1668345;85;21158;-67
2023/09/07 06:01:18;;;;;;;5.15;3.58;;;;;;;18.13;66.77;101229.84;1668488;84;21089;-68
2023/09/07 06:03:47;;;;;;;8.28;3.95;;;;;;;18.15;66.56;101236.86;1668453;84;21074;-67
2023/09/07 06:06:17;;;;;;;6.42;3.27;;;;;;;18.12;66.51;101231.77;1668537;85;21066;-68
2023/09/07 06:08:45;;;;;;;7.05;3.47;;;;;;;18.12;66.54;101239.24;1668329;85;21126;-67
2023/09/07 06:11:15;;;;;;;5.90;3.62;;;;;;;18.13;66.47;101238.17;1668420;85;21177;-68
2023/09/07 06:13:46;;;;;;;5.60;3.75;;;;;;;18.14;66.54;101239.86;1668322;86;21073;-68
2023/09/07 06:16:16;;;;;;;8.65;3.98;;;;;;;18.17;66.68;101246.34;1668336;84;21526;-68
2023/09/07 06:18:47;;;;;;;11.15;4.20;;;;;;;18.16;66.53;101244.11;1668523;86;21055;-67
2023/09/07 06:21:16;;;;;;;6.60;3.90;;;;;;;18.14;66.54;101244.88;1668499;85;21074;-69
2023/09/07 06:23:47;;;;;;;7.22;3.80;;;;;;;18.13;66.45;101246.48;1668485;86;21035;-69
2023/09/07 06:26:17;;;;;;;8.05;3.45;;;;;;;18.14;66.35;101252.34;1668614;85;21051;-66
2023/09/07 06:28:47;;;;;;;5.60;3.50;;;;;;;18.12;66.33;101254.50;1668337;86;21110;-67
2023/09/07 06:31:16;;;;;;;7.92;3.72;;;;;;;18.12;66.24;101254.50;1668688;86;21014;-67
2023/09/07 06:33:46;;;;;;;4.92;3.40;;;;;;;18.12;66.31;101255.34;1668570;84;21090;-67
2023/09/07 06:36:16;;;;;;;5.67;3.70;;;;;;;18.14;66.10;101260.13;1668658;85;21095;-67
2023/09/07 06:38:54;;;;;;;6.80;3.77;;;;;;;18.17;65.97;101262.45;1670808;84;21046;-67
2023/09/07 06:44:00;;;;;;;6.83;3.70;;;;;;;18.19;65.53;101270.55;1666127;85;21093;-68
2023/09/07 06:46:31;;;;;;;5.08;3.30;;;;;;;18.23;65.27;101271.83;1665695;85;21094;-67
2023/09/07 06:49:00;;;;;;;4.72;3.42;;;;;;;18.27;65.34;101273.06;1650358;86;21090;-66
2023/09/07 06:51:33;;;;;;;8.10;3.20;;;;;;;18.29;64.93;101277.31;1665832;86;21521;-66
2023/09/07 06:54:03;;;;;;;8.58;3.60;;;;;;;18.28;64.60;101279.77;1665567;85;21474;-68
2023/09/07 06:56:34;;;;;;;8.38;3.80;;;;;;;18.25;64.49;101273.30;1665602;86;21046;-68
2023/09/07 06:59:04;;;;;;;7.95;3.52;;;;;;;18.28;64.29;101278.92;1665756;86;21054;-67
2023/09/07 07:01:33;;;;;;;4.53;3.50;;;;;;;18.36;64.08;101286.96;1665501;86;21082;-67
2023/09/07 07:04:03;;;;;;;6.10;2.80;;;;;;;18.39;63.61;101285.13;1665532;85;21536;-66
2023/09/07 07:06:33;;;;;;;8.30;3.17;;;;;;;18.41;63.34;101286.28;1665667;86;21106;-67
2023/09/07 07:09:03;;;;;;;6.67;3.37;;;;;;;18.41;63.30;101284.36;1665666;86;21095;-67
2023/09/07 07:11:32;;;;;;;5.45;2.77;;;;;;;18.44;63.44;101286.67;1665582;85;21459;-67
2023/09/07 07:14:02;;;;;;;4.45;2.52;;;;;;;18.52;63.13;101287.77;1665620;86;21066;-67
2023/09/07 07:16:31;;;;;;;11.65;3.72;;;;;;;18.58;62.52;101292.41;1696143;83;21078;-67
2023/09/07 07:18:59;;;;;;;5.72;3.05;;;;;;;18.61;62.14;101286.42;1665619;86;21085;-66
2023/09/07 07:21:30;;;;;;;7.33;3.65;;;;;;;18.63;61.79;101278.72;1665508;85;21071;-67
2023/09/07 07:24:00;;;;;;;5.78;3.33;;;;;;;18.68;61.69;101276.64;1665702;86;21047;-66
2023/09/07 07:26:29;;;;;;;6.67;4.17;;;;;;;18.72;61.46;101282.59;1665647;86;21018;-68
2023/09/07 07:28:59;;;;;;;5.20;3.12;;;;;;;18.74;61.04;101284.05;1665677;86;21118;-68
2023/09/07 07:31:28;;;;;;;4.28;2.87;;;;;;;18.80;60.52;101283.12;1665665;85;21074;-69
2023/09/07 07:33:59;;;;;;;4.62;2.47;;;;;;;18.88;60.29;101280.62;1665529;86;21076;-67
2023/09/07 07:36:28;;;;;;;4.75;2.70;;;;;;;18.95;59.76;101277.22;1665640;86;21075;-67
2023/09/07 07:39:00;;;;;;;4.28;2.60;;;;;;;19.02;59.21;101284.94;1665852;85;21036;-67
2023/09/07 07:41:30;;;;;;;5.85;2.62;;;;;;;19.08;58.90;101284.01;1665514;85;21169;-67
2023/09/07 07:43:59;;;;;;;4.33;2.33;;;;;;;19.11;58.46;101293.27;1665460;86;21054;-67
2023/09/07 07:46:28;;;;;;;4.37;3.12;;;;;;;19.16;58.04;101287.02;1665544;86;21126;-68
2023/09/07 07:48:58;;;;;;;4.55;2.70;;;;;;;19.27;57.27;101287.08;1665534;86;22103;-66
2023/09/07 07:51:28;;;;;;;9.50;2.60;;;;;;;19.57;56.15;101291.33;1665646;86;21019;-67
2023/09/07 07:53:59;;;;;;;7.90;2.60;;;;;;;20.03;54.74;101284.76;1670339;85;21092;-67
2023/09/07 07:56:29;;;;;;;9.90;6.22;;;;;;;20.57;53.37;101287.30;1676887;85;21107;-67
2023/09/07 07:59:02;;;;;;;6.70;2.77;;;;;;;21.07;52.33;101285.39;1675335;85;21130;-66
2023/09/07 08:01:32;;;;;;;4.10;2.67;;;;;;;21.60;50.51;101284.86;1675785;85;21094;-63
2023/09/07 08:04:01;;;;;;;7.78;3.10;;;;;;;22.10;48.98;101285.82;1676694;85;21039;-70
2023/09/07 08:06:34;;;;;;;5.15;2.62;;;;;;;22.59;47.60;101280.50;1673472;85;21086;-68
2023/09/07 08:09:05;;;;;;;5.67;2.33;;;;;;;23.01;45.73;101279.50;1671583;85;21269;-69
2023/09/07 08:11:34;;;;;;;6.70;2.20;;;;;;;23.46;43.84;101283.16;1671500;85;21149;-68
2023/09/07 08:14:02;;;;;;;3.87;2.10;;;;;;;23.87;43.22;101288.13;1672260;85;21095;-69
2023/09/07 08:16:31;;;;;;;4.60;2.20;;;;;;;24.23;42.20;101282.33;1676921;85;21063;-68
2023/09/07 08:19:00;;;;;;;3.35;1.85;;;;;;;24.48;41.12;101272.47;1676661;84;21121;-68
2023/09/07 08:21:28;;;;;;;4.87;2.20;;;;;;;24.73;40.08;101274.08;1676230;85;21090;-69
2023/09/07 08:23:58;;;;;;;4.80;2.67;;;;;;;25.00;39.57;101277.34;1676479;85;21075;-69
2023/09/07 08:26:26;;;;;;;3.40;1.90;;;;;;;25.25;38.48;101285.88;1676326;85;21087;-68
2023/09/07 08:28:55;;;;;;;2.50;1.60;;;;;;;25.38;36.99;101288.77;1676834;85;21076;-68
2023/09/07 08:31:24;;;;;;;2.45;1.62;;;;;;;25.40;37.72;101290.73;1675020;85;21182;-70
2023/09/07 08:33:54;;;;;;;7.85;1.87;;;;;;;25.58;37.55;101279.01;1671503;86;21055;-68
2023/09/07 08:36:23;;;;;;;6.42;2.55;;;;;;;25.78;36.48;101281.89;1671694;86;21545;-69
2023/09/07 08:38:59;;;;;;;3.25;1.90;;;;;;;25.81;36.44;101281.34;1671764;84;21093;-69
2023/09/07 08:41:22;;;;;;;3.65;1.80;;;;;;;25.78;36.27;101281.05;1671161;84;21070;-71
2023/09/07 08:43:55;;;;;;;3.67;1.90;;;;;;;25.74;36.35;101286.94;1674440;85;21475;-69
2023/09/07 08:46:30;;;;;;;3.87;2.10;;;;;;;25.80;36.77;101280.22;1676680;84;21094;-69
2023/09/07 08:49:01;;;;;;;5.40;2.20;;;;;;;25.80;36.77;101280.22;1676817;85;21110;-70
2023/09/07 08:51:31;;;;;;;5.17;2.02;;;;;;;25.90;37.25;101281.08;1631177;85;21538;-76
2023/09/07 08:54:00;;;;;;;4.70;2.30;;;;;;;25.98;37.08;101289.52;1676662;85;21116;-73
2023/09/07 08:56:29;;;;;;;3.85;2.12;;;;;;;25.86;37.10;101290.33;1652227;85;21022;-69
2023/09/07 08:58:58;;;;;;;8.28;1.85;;;;;;;25.58;37.37;101289.67;1676789;84;21054;-71
2023/09/07 09:01:31;;;;;;;4.25;2.27;;;;;;;25.39;37.76;101294.10;1676933;85;21015;-68
2023/09/07 09:03:59;;;;;;;2.70;2.12;;;;;;;25.21;38.03;101284.73;1652198;85;21043;-72
2023/09/07 09:06:28;;;;;;;5.50;2.30;;;;;;;25.04;38.34;101295.31;1680354;84;21091;-69
2023/09/07 09:08:58;;;;;;;6.08;2.20;;;;;;;24.88;38.59;101290.98;1681720;85;21503;-69
2023/09/07 09:11:27;;;;;;;2.67;1.90;;;;;;;24.59;39.32;101291.89;1681688;84;21050;-74
2023/09/07 09:13:56;;;;;;;3.58;1.90;;;;;;;24.48;39.77;101292.08;1681813;85;21054;-73
2023/09/07 09:16:25;;;;;;;4.78;2.40;;;;;;;24.42;39.51;101291.20;1681905;85;21067;-69
2023/09/07 09:18:56;;;;;;;7.95;2.12;;;;;;;24.36;39.59;101298.44;1682042;85;21066;-69
2023/09/07 09:21:26;;;;;;;5.17;2.42;;;;;;;24.24;39.53;101300.83;1656338;85;21102;-69
2023/09/07 09:23:56;;;;;;;3.65;2.10;;;;;;;24.19;39.75;101299.38;1681770;84;21139;-70
2023/09/07 09:26:25;;;;;;;2.87;2.00;;;;;;;24.17;39.95;101291.80;1681816;84;21094;-69
2023/09/07 09:28:57;;;;;;;3.80;1.90;;;;;;;24.10;40.29;101302.94;1681637;85;21479;-71
2023/09/07 09:31:27;;;;;;;4.28;2.08;;;;;;;23.97;40.64;101311.18;1681821;84;21032;-65
2023/09/07 09:33:57;;;;;;;2.83;2.05;;;;;;;23.78;39.84;101304.27;1681955;84;21066;-67
2023/09/07 09:36:34;;;;;;;3.45;2.40;;;;;;;23.58;40.43;101309.92;1681695;85;21102;-68
2023/09/07 09:39:04;;;;;;;;;;;;;;;23.43;41.04;101306.06;1684446;85;21055;-69
2023/09/07 09:41:35;;;;;;;3.85;2.20;;;;;;;23.22;41.63;101296.54;1681949;85;20296;-67
2023/09/07 09:44:05;;;;;;;4.30;2.37;;;;;;;23.14;41.99;101305.39;1679316;85;21071;-67
2023/09/07 09:46:35;;;;;;;4.60;1.98;;;;;;;23.10;41.48;101312.05;1676846;85;21218;-69
2023/09/07 09:49:05;;;;;;;5.10;2.08;;;;;;;23.02;41.21;101320.33;1659364;84;21094;-70
2023/09/07 09:51:35;;;;;;;6.30;1.85;;;;;;;22.89;41.51;101309.52;1676575;85;21027;-68
2023/09/07 09:54:06;;;;;;;3.80;2.00;;;;;;;22.83;40.99;101313.89;1676932;85;21227;-67
2023/09/07 09:56:35;;;;;;;3.37;2.10;;;;;;;22.81;41.34;101316.95;1659430;85;21525;-68
2023/09/07 09:59:05;;;;;;;5.28;2.00;;;;;;;22.82;40.94;101310.25;1676617;85;21071;-67
2023/09/07 10:01:44;;;;;;;4.28;2.00;;;;;;;22.84;40.79;101312.80;1676803;85;21509;-69
2023/09/07 10:04:15;;;;;;;6.78;2.22;;;;;;;22.83;40.58;101311.09;1676716;85;21027;-68
2023/09/07 10:07:05;;;;;;;4.22;1.65;;;;;;;22.82;40.12;101325.63;1672552;84;21039;-67
2023/09/07 10:09:32;;;;;;;3.90;1.60;;;;;;;22.84;39.78;101324.81;1671331;85;21043;-70
2023/09/07 10:12:04;;;;;;;4.08;1.70;;;;;;;22.83;38.11;101323.67;1671633;84;21513;-67
2023/09/07 10:14:42;;;;;;;2.92;1.40;;;;;;;22.81;37.79;101318.89;1654662;86;21090;-67
2023/09/07 10:17:15;;;;;;;4.78;1.87;;;;;;;22.83;37.10;101318.93;1672011;85;21082;-68
2023/09/07 10:19:50;;;;;;;3.98;1.85;;;;;;;22.81;37.53;101315.55;1654465;86;21082;-67
2023/09/07 10:22:23;;;;;;;3.80;1.62;;;;;;;22.78;37.78;101312.69;1671432;85;21090;-67
2023/09/07 10:24:59;;;;;;;4.63;3.30;;;;;;;22.75;36.52;101313.72;1671997;85;21074;-66
2023/09/07 10:27:37;;;;;;;4.15;1.70;;;;;;;22.75;36.27;101316.51;1671727;85;21083;-66
2023/09/07 10:30:22;;;;;;;4.05;2.42;;;;;;;22.77;35.95;101323.56;1671917;84;21015;-68
2023/09/07 10:32:49;;;;;;;2.60;1.70;;;;;;;22.81;35.95;101318.34;1671657;86;21086;-69
2023/09/07 10:35:27;;;;;;;6.03;1.40;;;;;;;22.85;35.55;101320.92;1671603;86;21078;-68
2023/09/07 10:37:55;;;;;;;;;;;;;;;22.83;33.99;101316.69;1674392;86;21078;-67
2023/09/07 10:40:25;;;;;;;4.37;1.57;;;;;;;22.81;34.18;101314.15;1671910;86;20163;-67
2023/09/07 10:43:04;;;;;;;4.53;1.47;;;;;;;22.77;34.33;101311.55;1671645;84;21035;-68
2023/09/07 10:45:33;;;;;;;3.77;1.27;;;;;;;22.77;34.74;101316.58;1671562;85;21226;-67
2023/09/07 10:48:03;;;;;;;3.33;1.22;;;;;;;22.78;34.33;101307.09;1671698;84;21486;-68
2023/09/07 10:50:44;;;;;;;4.35;1.20;;;;;;;22.76;33.77;101309.84;1671646;84;21071;-67
2023/09/07 10:53:14;;;;;;;2.85;1.07;;;;;;;22.77;32.84;101301.77;1671632;86;21087;-70
2023/09/07 10:55:43;;;;;;;2.25;1.40;;;;;;;22.75;32.65;101306.73;1654336;86;21070;-69
2023/09/07 10:58:12;;;;;;;2.67;1.50;;;;;;;22.72;32.43;101293.27;1671863;86;21166;-69
2023/09/07 11:00:44;;;;;;;2.65;1.32;;;;;;;22.69;32.68;101311.95;1654530;86;21094;-68
2023/09/07 11:03:14;;;;;;;4.97;1.22;;;;;;;22.67;33.33;101298.23;1671595;85;21478;-66
2023/09/07 11:05:45;;;;;;;5.85;1.40;;;;;;;22.67;33.41;101296.84;1673180;86;21106;-68
2023/09/07 11:08:15;;;;;;;2.27;1.30;;;;;;;22.65;33.63;101303.78;1675461;86;21151;-67
2023/09/07 11:10:44;;;;;;;4.50;1.32;;;;;;;22.63;33.14;101304.59;1675422;86;21118;-66
2023/09/07 11:13:16;;;;;;;4.95;1.80;;;;;;;22.60;33.40;101303.15;1675568;85;21110;-68
2023/09/07 11:15:45;;;;;;;4.58;2.20;;;;;;;22.54;33.62;101294.39;1657790;86;21266;-68
2023/09/07 11:18:13;;;;;;;2.25;1.20;;;;;;;22.52;32.71;101299.39;1675252;85;21066;-66
2023/09/07 11:20:42;;;;;;;2.90;1.30;;;;;;;22.54;33.13;101297.73;1675452;85;21082;-67
2023/09/07 11:23:11;;;;;;;7.55;1.92;;;;;;;22.57;32.93;101292.48;1675415;85;21011;-68
2023/09/07 11:25:40;;;;;;;3.00;1.52;;;;;;;22.62;32.44;101293.96;1675595;85;21054;-68
2023/09/07 11:28:11;;;;;;;2.92;1.30;;;;;;;22.70;32.60;101287.94;1675436;85;21022;-68
2023/09/07 11:30:53;;;;;;;4.10;1.20;;;;;;;22.74;32.41;101293.31;1675274;86;21042;-67
2023/09/07 11:33:22;;;;;;;4.17;1.27;;;;;;;22.74;32.61;101291.91;1675262;86;21567;-67
2023/09/07 11:35:54;;;;;;;2.77;1.30;;;;;;;22.74;32.89;101289.67;1675294;86;21006;-67
2023/09/07 11:38:25;;;;;;;3.33;1.20;;;;;;;22.70;32.97;101282.35;1675321;85;21062;-67
2023/09/07 11:40:54;;;;;;;3.25;1.27;;;;;;;22.70;33.41;101291.28;1675359;85;21038;-68
2023/09/07 11:43:24;;;;;;;3.60;1.27;;;;;;;22.71;32.98;101290.18;1675465;86;21070;-69